首页
METAR-TAF:

METAR-TAF

机场 :

勒阿弗尔, 法国

纬度: 49-31N, 经度: 000-04E, 海拔: 100米

当前天气观测

该预报发布于21分钟前的07:30 UTC
风速10节,风向南转西南
温度 5°C
湿度 87%
气压 1024 hPa
能见度10公里或以上
1500米以下无云,无积雨云

METAR: LFOH 100730Z AUTO 20010KT CAVOK 05/03 Q1024

时间: 08:51 (07:51 UTC)

预报

该预报发布于20小时和51分钟前的11:00 UTC
预报有效从09日的 12点(UTC)到 10日的 12点(UTC)
风速28节,风向西转西北,有时为40节阵风
能见度10公里或以上
散云层高于3000英尺
成为
从 09日的 14点(UTC)到 09日的 16点(UTC)
风速20节,风向北转西北,有时为30节阵风
成为
从 09日的 16点(UTC)到 09日的 19点(UTC)
风速15节,风向北转西北
成为
从 09日的 22点(UTC)到 09日的 24点(UTC)
风速2节,风向多变
成为
从 10日的 03点(UTC)到 10日的 06点(UTC)
风速12节,风向
成为
从 10日的 10点(UTC)到 10日的 12点(UTC)
风速18节,风向南转西南,有时为28节阵风

TAF: LFOH 091100Z 0912/1012 30028G40KT 9999 SCT030 BECMG 0914/0916 34020G30KT BECMG 0916/0919 34015KT BECMG 0922/0924 VRB02KT BECMG 1003/1006 19012KT BECMG 1010/1012 20018G28KT

超过4000个机场的气象观测和天气预报(METAR&TAF报告)。

可查询的气象台以黄色和红色小点在地图上表示。

将鼠标移到小点上方,可查看气象台名称。

然后点击查看天气观测和预报。

如需切换地图:点击带黑十字的绿色按钮放大地图;点击带横线的绿色按钮缩小地图;或者点击绿色箭头查看邻近地区的地图。


METAR-TAF: